createdAt,value
2022-11-27T00:01:31.399Z,78864.00
2022-11-27T00:03:58.394Z,78864.00
2022-11-27T00:06:27.937Z,78859.94
2022-11-27T00:09:04.031Z,78859.94
2022-11-27T00:11:32.268Z,78859.94
2022-11-27T00:14:00.540Z,78859.94
2022-11-27T00:16:28.843Z,78868.06
2022-11-27T00:18:56.172Z,78861.97
2022-11-27T00:21:29.239Z,78851.81
2022-11-27T00:23:58.252Z,78864.00
2022-11-27T00:26:25.747Z,78864.00
2022-11-27T00:28:55.128Z,78868.06
2022-11-27T00:31:31.354Z,78868.06
2022-11-27T00:34:00.579Z,78868.06
2022-11-27T00:36:32.707Z,78855.88
2022-11-27T00:39:00.540Z,78859.94
2022-11-27T00:41:30.166Z,78859.94
2022-11-27T00:43:57.845Z,78859.94
2022-11-27T00:46:30.513Z,78859.94
2022-11-27T00:48:59.170Z,78855.88
2022-11-27T00:51:28.636Z,78864.00
2022-11-27T00:53:56.147Z,78861.97
2022-11-27T00:56:29.189Z,78864.00
2022-11-27T00:58:57.002Z,78857.91
2022-11-27T01:01:30.728Z,78866.03
2022-11-27T01:03:59.646Z,78864.00
2022-11-27T01:06:28.523Z,78864.00
2022-11-27T01:08:56.117Z,78868.06
2022-11-27T01:11:30.976Z,78868.06
2022-11-27T01:14:01.377Z,78872.09
2022-11-27T01:16:30.757Z,78868.06
2022-11-27T01:18:59.955Z,78859.94
2022-11-27T01:21:30.106Z,78859.94
2022-11-27T01:23:56.943Z,78855.88
2022-11-27T01:26:25.086Z,78864.00
2022-11-27T01:28:56.778Z,78868.06
2022-11-27T01:31:27.348Z,78851.81
2022-11-27T01:33:57.087Z,78855.88
2022-11-27T01:36:25.010Z,78851.81
2022-11-27T01:38:52.378Z,78855.88
2022-11-27T01:41:30.114Z,78855.88
2022-11-27T01:44:00.424Z,78859.94
2022-11-27T01:46:43.981Z,78851.81
2022-11-27T01:49:11.091Z,78851.81
2022-11-27T01:51:50.111Z,78843.72
2022-11-27T01:54:18.710Z,78847.78
2022-11-27T01:56:50.259Z,78851.81
2022-11-27T01:59:18.522Z,78847.78
2022-11-27T02:01:45.816Z,78851.81
2022-11-27T02:04:13.120Z,78855.88
2022-11-27T02:06:40.522Z,78849.81
2022-11-27T02:09:07.602Z,78843.72
2022-11-27T02:11:48.786Z,78849.81
2022-11-27T02:14:18.982Z,78855.88
2022-11-27T02:17:02.858Z,78859.94
2022-11-27T02:19:57.896Z,78857.91
2022-11-27T02:22:45.454Z,78855.88
2022-11-27T02:25:25.267Z,78859.94
2022-11-27T02:28:08.346Z,78864.00
2022-11-27T02:30:41.653Z,78896.44
2022-11-27T02:33:12.860Z,78864.00
2022-11-27T02:35:48.232Z,78872.09
2022-11-27T02:38:27.263Z,78876.16
2022-11-27T02:41:02.058Z,78872.09
2022-11-27T02:43:36.409Z,78872.09
2022-11-27T02:46:06.861Z,78868.06
2022-11-27T02:48:39.742Z,78864.00
2022-11-27T02:51:07.820Z,78859.94
2022-11-27T02:53:44.375Z,78859.94
2022-11-27T02:56:16.199Z,78864.00
2022-11-27T02:58:46.364Z,78859.94
2022-11-27T03:01:14.854Z,78859.94
2022-11-27T03:03:47.554Z,78855.88
2022-11-27T03:06:27.363Z,78851.81
2022-11-27T03:09:00.275Z,78849.81
2022-11-27T03:11:30.982Z,78853.84
2022-11-27T03:14:04.382Z,78847.78
2022-11-27T03:16:52.764Z,78851.81
2022-11-27T03:19:25.838Z,78855.88
2022-11-27T03:21:56.466Z,78849.81
2022-11-27T03:24:25.107Z,78851.81
2022-11-27T03:26:52.475Z,78849.81
2022-11-27T03:29:36.488Z,78859.94
2022-11-27T03:32:04.603Z,78847.78
2022-11-27T03:34:32.978Z,78859.94
2022-11-27T03:37:00.615Z,78855.88
2022-11-27T03:39:29.580Z,78855.88
2022-11-27T03:42:24.220Z,78855.88
2022-11-27T03:45:35.088Z,78855.88
2022-11-27T03:48:17.615Z,78859.94
2022-11-27T03:50:59.865Z,78859.94
2022-11-27T03:54:01.070Z,78876.16
2022-11-27T03:56:31.578Z,78872.09
2022-11-27T03:59:17.530Z,78872.09
2022-11-27T04:01:45.990Z,78861.97
2022-11-27T04:04:13.619Z,78864.00
2022-11-27T04:06:41.927Z,78864.00
2022-11-27T04:09:08.859Z,78864.00
2022-11-27T04:11:36.541Z,78876.16
2022-11-27T04:14:03.795Z,78868.06
2022-11-27T04:16:31.082Z,78851.81
2022-11-27T04:18:58.043Z,78859.94
2022-11-27T04:21:25.442Z,78851.81
2022-11-27T04:23:52.812Z,78851.81
2022-11-27T04:26:20.009Z,78851.81
2022-11-27T04:28:46.954Z,78855.88
2022-11-27T04:31:14.176Z,78864.00
2022-11-27T04:33:41.070Z,78864.00
2022-11-27T04:36:08.442Z,78861.97
2022-11-27T04:38:35.353Z,78853.84
2022-11-27T04:41:02.621Z,78851.81
2022-11-27T04:43:29.606Z,78851.81
2022-11-27T04:45:57.013Z,78851.81
2022-11-27T04:48:23.879Z,78855.88
2022-11-27T04:50:51.090Z,78851.81
2022-11-27T04:53:37.644Z,78847.78
2022-11-27T04:56:22.901Z,78845.75
2022-11-27T04:58:50.341Z,78843.72
2022-11-27T05:01:17.467Z,78843.72
2022-11-27T05:03:46.612Z,78843.72
2022-11-27T05:06:14.180Z,78847.78
2022-11-27T05:08:41.704Z,78845.75
2022-11-27T05:11:13.130Z,78835.59
2022-11-27T05:13:40.694Z,78831.53
2022-11-27T05:16:08.224Z,78831.53
2022-11-27T05:18:35.725Z,78831.53
2022-11-27T05:21:08.081Z,78835.59
2022-11-27T05:23:35.372Z,78827.47
2022-11-27T05:26:03.551Z,78823.44
2022-11-27T05:28:30.961Z,78827.47
2022-11-27T05:30:57.814Z,78835.59
2022-11-27T05:33:25.037Z,78827.47
2022-11-27T05:35:51.955Z,78831.53
2022-11-27T05:38:19.157Z,78821.41
2022-11-27T05:40:46.006Z,78827.47
2022-11-27T05:43:13.162Z,78827.47
2022-11-27T05:45:40.031Z,78821.41
2022-11-27T05:48:07.221Z,78827.47
2022-11-27T05:50:34.122Z,78821.41
2022-11-27T05:53:01.451Z,78819.38
2022-11-27T05:55:28.597Z,78815.31
2022-11-27T05:57:55.802Z,78815.31
2022-11-27T06:00:22.887Z,78807.19
2022-11-27T06:02:50.161Z,78807.19
2022-11-27T06:05:17.155Z,78803.16
2022-11-27T06:07:44.515Z,78803.16
2022-11-27T06:10:11.659Z,78803.16
2022-11-27T06:12:38.943Z,78803.16
2022-11-27T06:15:06.202Z,78803.16
2022-11-27T06:17:33.371Z,78795.03
2022-11-27T06:20:00.293Z,78788.94
2022-11-27T06:22:27.544Z,78786.91
2022-11-27T06:24:54.398Z,78786.91
2022-11-27T06:27:21.956Z,78778.81
2022-11-27T06:29:48.967Z,78782.84
2022-11-27T06:32:16.350Z,78782.84
2022-11-27T06:34:43.604Z,78795.03
2022-11-27T06:37:13.319Z,78799.09
2022-11-27T06:39:40.518Z,78795.03
2022-11-27T06:42:07.744Z,78790.97
2022-11-27T06:44:34.925Z,78786.91
2022-11-27T06:47:02.418Z,78784.88
2022-11-27T06:49:29.409Z,78782.84
2022-11-27T06:51:56.556Z,78778.81
2022-11-27T06:54:23.869Z,78803.16
2022-11-27T06:56:51.411Z,78799.09
2022-11-27T06:59:18.908Z,78795.03
2022-11-27T07:01:46.514Z,78793.00
2022-11-27T07:04:15.661Z,78782.84
2022-11-27T07:06:43.775Z,78778.81
2022-11-27T07:09:10.729Z,78774.75
2022-11-27T07:11:38.928Z,78766.63
2022-11-27T07:14:06.660Z,78758.53
2022-11-27T07:16:36.375Z,78756.50
2022-11-27T07:19:07.881Z,78756.50
2022-11-27T07:21:38.153Z,78746.34
2022-11-27T07:24:05.339Z,78742.28
2022-11-27T07:26:32.610Z,78742.28
2022-11-27T07:28:59.752Z,78734.19
2022-11-27T07:31:30.152Z,78730.13
2022-11-27T07:33:57.464Z,78726.06
2022-11-27T07:36:27.259Z,78726.06
2022-11-27T07:38:54.527Z,78722.00
2022-11-27T07:41:22.216Z,78717.94
2022-11-27T07:43:49.442Z,78705.78
2022-11-27T07:46:19.603Z,78701.72
2022-11-27T07:48:46.877Z,78697.66
2022-11-27T07:51:17.387Z,78693.63
2022-11-27T07:53:44.417Z,78685.50
2022-11-27T07:56:13.933Z,78683.47
2022-11-27T07:58:41.664Z,78679.41
2022-11-27T08:01:11.784Z,78673.31
2022-11-27T08:03:39.192Z,78685.50
2022-11-27T08:06:24.265Z,78695.63
2022-11-27T08:08:52.741Z,78699.69
2022-11-27T08:11:25.927Z,78709.84
2022-11-27T08:13:57.785Z,78711.88
2022-11-27T08:16:25.354Z,78705.78
2022-11-27T08:18:52.975Z,78709.84
2022-11-27T08:21:20.284Z,78701.72
2022-11-27T08:23:47.771Z,78709.84
2022-11-27T08:26:15.802Z,78695.63
2022-11-27T08:28:43.003Z,78693.63
2022-11-27T08:31:13.754Z,78677.38
2022-11-27T08:33:41.745Z,78691.59
2022-11-27T08:36:13.702Z,78644.94
2022-11-27T08:38:44.517Z,78632.75
2022-11-27T08:41:11.946Z,78620.59
2022-11-27T08:43:38.957Z,78612.47
2022-11-27T08:46:07.684Z,78612.47
2022-11-27T08:48:35.697Z,78626.69
2022-11-27T08:51:08.807Z,78636.81
2022-11-27T08:53:37.847Z,78636.81
2022-11-27T08:56:08.728Z,78657.09
2022-11-27T08:58:35.870Z,78651.03
2022-11-27T09:01:30.685Z,78644.94
2022-11-27T09:03:58.149Z,78640.88
2022-11-27T09:06:31.381Z,78628.72
2022-11-27T09:09:00.185Z,78618.56
2022-11-27T09:11:29.094Z,78608.44
2022-11-27T09:13:56.026Z,78604.38
2022-11-27T09:16:23.328Z,78628.72
2022-11-27T09:18:52.116Z,78628.72
2022-11-27T09:21:23.080Z,78620.59
2022-11-27T09:23:55.193Z,78604.38
2022-11-27T09:26:24.089Z,78596.25
2022-11-27T09:28:52.726Z,78580.03
2022-11-27T09:31:20.772Z,78569.88
2022-11-27T09:33:47.805Z,78555.69
2022-11-27T09:36:18.512Z,78555.69
2022-11-27T09:38:45.542Z,78545.53
2022-11-27T09:41:39.745Z,78543.53
2022-11-27T09:44:42.902Z,78523.25
2022-11-27T09:47:41.975Z,78533.38
2022-11-27T09:50:26.304Z,78547.56
2022-11-27T09:52:59.216Z,78547.56
2022-11-27T09:55:33.911Z,78539.47
2022-11-27T09:58:31.049Z,78539.47
2022-11-27T10:00:58.781Z,78535.41
2022-11-27T10:03:28.233Z,78535.41
2022-11-27T10:06:05.844Z,78527.28
2022-11-27T10:09:14.798Z,78527.28
2022-11-27T10:12:03.562Z,78531.34
2022-11-27T10:14:59.975Z,78515.13
2022-11-27T10:17:33.452Z,78502.94
2022-11-27T10:20:11.586Z,78490.78
2022-11-27T10:22:41.738Z,78482.66
2022-11-27T10:25:12.129Z,78462.38
2022-11-27T10:28:00.440Z,78458.34
2022-11-27T10:30:31.287Z,78460.38
2022-11-27T10:33:00.840Z,78466.44
2022-11-27T10:35:30.791Z,78458.34
2022-11-27T10:38:07.459Z,78466.44
2022-11-27T10:40:43.024Z,78468.47
2022-11-27T10:43:23.497Z,78466.44
2022-11-27T10:45:59.295Z,78450.22
2022-11-27T10:48:28.549Z,78438.06
2022-11-27T10:50:56.329Z,78438.06
2022-11-27T10:53:31.959Z,78438.06
2022-11-27T10:56:27.079Z,78429.94
2022-11-27T10:59:00.683Z,78425.88
2022-11-27T11:01:42.853Z,78413.72
2022-11-27T11:04:36.511Z,78409.66
2022-11-27T11:06:59.523Z,78409.66
2022-11-27T11:09:31.968Z,78411.69
2022-11-27T11:12:21.222Z,78421.81
2022-11-27T11:14:52.645Z,78409.66
2022-11-27T11:17:40.926Z,78417.78
2022-11-27T11:20:24.935Z,78413.72
2022-11-27T11:22:52.346Z,78417.78
2022-11-27T11:25:21.246Z,78413.72
2022-11-27T11:27:50.681Z,78397.50
2022-11-27T11:30:30.364Z,78397.50
2022-11-27T11:33:02.962Z,78393.44
2022-11-27T11:35:37.120Z,78381.25
2022-11-27T11:38:14.465Z,78387.34
2022-11-27T11:40:44.777Z,78385.31
2022-11-27T11:43:28.012Z,78379.22
2022-11-27T11:45:56.453Z,78377.22
2022-11-27T11:48:27.103Z,78381.25
2022-11-27T11:50:57.448Z,78377.22
2022-11-27T11:53:45.589Z,78381.25
2022-11-27T11:56:43.126Z,78383.28
2022-11-27T11:59:44.901Z,78381.25
2022-11-27T12:02:43.006Z,78377.22
2022-11-27T12:05:38.967Z,78385.31
2022-11-27T12:08:34.021Z,78379.22
2022-11-27T12:11:19.092Z,78377.22
2022-11-27T12:14:02.439Z,78377.22
2022-11-27T12:16:49.121Z,78381.25
2022-11-27T12:19:34.997Z,78379.22
2022-11-27T12:22:11.569Z,78373.16
2022-11-27T12:25:06.603Z,78373.16
2022-11-27T12:28:16.469Z,78377.22
2022-11-27T12:30:58.971Z,78365.03
2022-11-27T12:33:36.060Z,78360.97
2022-11-27T12:36:29.219Z,78365.03
2022-11-27T12:39:11.230Z,78365.03
2022-11-27T12:41:50.419Z,78360.97
2022-11-27T12:44:44.998Z,78348.81
2022-11-27T12:47:33.978Z,78352.88
2022-11-27T12:50:24.041Z,78344.75
2022-11-27T12:53:03.405Z,78340.69
2022-11-27T12:55:34.936Z,78342.72
2022-11-27T12:58:22.015Z,78344.75
2022-11-27T13:00:51.445Z,78332.59
2022-11-27T13:03:30.791Z,78340.69
2022-11-27T13:06:09.722Z,78332.59
2022-11-27T13:08:59.972Z,78332.59
2022-11-27T13:11:37.674Z,78334.63
2022-11-27T13:14:32.646Z,78332.59
2022-11-27T13:17:05.205Z,78336.66
2022-11-27T13:19:36.246Z,78336.66
2022-11-27T13:22:07.587Z,78328.53
2022-11-27T13:24:35.767Z,78324.47
2022-11-27T13:27:10.751Z,78320.41
2022-11-27T13:29:44.343Z,78328.53
2022-11-27T13:32:27.731Z,78332.59
2022-11-27T13:34:58.519Z,78340.69
2022-11-27T13:37:37.002Z,78344.75
2022-11-27T13:40:23.949Z,78340.69
2022-11-27T13:42:55.793Z,78344.75
2022-11-27T13:45:27.792Z,78338.66
2022-11-27T13:47:57.318Z,78340.69
2022-11-27T13:50:30.908Z,78348.81
2022-11-27T13:53:04.385Z,78358.94
2022-11-27T13:55:40.235Z,78348.81
2022-11-27T13:58:08.435Z,78356.94
2022-11-27T14:00:42.370Z,78340.69
2022-11-27T14:03:30.564Z,78344.75
2022-11-27T14:05:57.764Z,78344.75
2022-11-27T14:08:34.388Z,78344.75
2022-11-27T14:11:08.781Z,78344.75
2022-11-27T14:13:52.130Z,78356.94
2022-11-27T14:16:26.390Z,78352.88
2022-11-27T14:18:58.975Z,78348.81
2022-11-27T14:21:42.546Z,78344.75
2022-11-27T14:24:34.532Z,78344.75
2022-11-27T14:27:20.810Z,78360.97
2022-11-27T14:29:49.000Z,78360.97
2022-11-27T14:32:17.848Z,78373.16
2022-11-27T14:34:48.003Z,78377.22
2022-11-27T14:37:23.684Z,78385.31
2022-11-27T14:39:51.290Z,78393.44
2022-11-27T14:42:29.484Z,78409.66
2022-11-27T14:45:27.075Z,78407.63
2022-11-27T14:47:55.945Z,78405.59
2022-11-27T14:50:23.306Z,78407.63
2022-11-27T14:52:54.768Z,78405.59
2022-11-27T14:55:22.988Z,78405.59
2022-11-27T14:57:50.957Z,78401.53
2022-11-27T15:00:31.544Z,78405.59
2022-11-27T15:03:09.448Z,78401.53
2022-11-27T15:05:38.689Z,78409.66
2022-11-27T15:08:10.321Z,78401.53
2022-11-27T15:10:40.509Z,78397.50
2022-11-27T15:13:21.066Z,78393.44
2022-11-27T15:15:57.690Z,78389.38
2022-11-27T15:18:27.324Z,78383.28
2022-11-27T15:20:55.585Z,78389.38
2022-11-27T15:23:26.315Z,78377.22
2022-11-27T15:25:59.313Z,78383.28
2022-11-27T15:28:50.603Z,78377.22
2022-11-27T15:31:29.301Z,78385.31
2022-11-27T15:34:04.319Z,78381.25
2022-11-27T15:36:38.290Z,78385.31
2022-11-27T15:39:20.586Z,78389.38
2022-11-27T15:42:09.882Z,78389.38
2022-11-27T15:44:38.286Z,78385.31
2022-11-27T15:47:07.034Z,78393.44
2022-11-27T15:49:34.097Z,78389.38
2022-11-27T15:52:01.518Z,78385.31
2022-11-27T15:54:28.638Z,78381.25
2022-11-27T15:56:56.001Z,78389.38
2022-11-27T15:59:24.836Z,78385.31
2022-11-27T16:01:52.367Z,78381.25
2022-11-27T16:04:19.342Z,78389.38
2022-11-27T16:06:46.964Z,78377.22
2022-11-27T16:09:14.054Z,78375.19
2022-11-27T16:11:41.375Z,78371.13
2022-11-27T16:14:08.473Z,78373.16
2022-11-27T16:16:36.191Z,78369.09
2022-11-27T16:19:05.528Z,78365.03
2022-11-27T16:21:34.608Z,78365.03
2022-11-27T16:24:04.136Z,78356.94
2022-11-27T16:26:32.187Z,78358.94
2022-11-27T16:28:59.179Z,78356.94
2022-11-27T16:31:27.607Z,78354.91
2022-11-27T16:33:54.532Z,78360.97
2022-11-27T16:36:24.733Z,78365.03
2022-11-27T16:38:52.944Z,78365.03
2022-11-27T16:41:21.298Z,78363.00
2022-11-27T16:43:51.806Z,78365.03
2022-11-27T16:46:25.876Z,78363.00
2022-11-27T16:48:54.924Z,78365.03
2022-11-27T16:51:29.174Z,78365.03
2022-11-27T16:53:57.809Z,78363.00
2022-11-27T16:56:27.559Z,78365.03
2022-11-27T16:58:58.083Z,78365.03
2022-11-27T17:01:32.591Z,78365.03
2022-11-27T17:03:59.847Z,78365.03
2022-11-27T17:06:29.863Z,78365.03
2022-11-27T17:08:59.582Z,78360.97
2022-11-27T17:11:29.378Z,78365.03
2022-11-27T17:13:59.003Z,78365.03
2022-11-27T17:16:28.237Z,78369.09
2022-11-27T17:18:55.348Z,78373.16
2022-11-27T17:21:26.409Z,78373.16
2022-11-27T17:24:07.854Z,78373.16
2022-11-27T17:26:42.661Z,78373.16
2022-11-27T17:29:11.052Z,78371.13
2022-11-27T17:31:39.106Z,78369.09
2022-11-27T17:34:07.394Z,78369.09
2022-11-27T17:36:37.426Z,78367.06
2022-11-27T17:39:06.803Z,78369.09
2022-11-27T17:41:34.676Z,78393.44
2022-11-27T17:44:05.510Z,78365.03
2022-11-27T17:46:33.750Z,78369.09
2022-11-27T17:49:04.762Z,78373.16
2022-11-27T17:51:33.953Z,78373.16
2022-11-27T17:54:02.439Z,78373.16
2022-11-27T17:56:33.672Z,78373.16
2022-11-27T17:59:01.446Z,78373.16
2022-11-27T18:01:30.655Z,78377.22
2022-11-27T18:04:01.137Z,78373.16
2022-11-27T18:06:32.529Z,78369.09
2022-11-27T18:09:01.182Z,78373.16
2022-11-27T18:11:32.123Z,78369.09
2022-11-27T18:14:01.507Z,78369.09
2022-11-27T18:16:36.983Z,78373.16
2022-11-27T18:19:06.844Z,78369.09
2022-11-27T18:21:34.922Z,78365.03
2022-11-27T18:29:40.029Z,78363.00
2022-11-27T18:32:08.541Z,78365.03
2022-11-27T18:34:35.694Z,78358.94
2022-11-27T18:37:04.218Z,78352.88
2022-11-27T18:39:32.151Z,78344.75
2022-11-27T18:41:59.875Z,78348.81
2022-11-27T18:44:27.185Z,78352.88
2022-11-27T18:46:55.521Z,78352.88
2022-11-27T18:49:23.587Z,78348.81
2022-11-27T18:51:53.544Z,78356.94
2022-11-27T18:54:21.757Z,78356.94
2022-11-27T18:56:49.165Z,78360.97
2022-11-27T18:59:16.504Z,78352.88
2022-11-27T19:01:45.427Z,78352.88
2022-11-27T19:04:12.889Z,78344.75
2022-11-27T19:06:45.021Z,78348.81
2022-11-27T19:09:14.144Z,78356.94
2022-11-27T19:11:43.631Z,78348.81
2022-11-27T19:14:11.389Z,78352.88
2022-11-27T19:16:46.177Z,78344.75
2022-11-27T19:19:53.404Z,78336.66
2022-11-27T19:22:08.076Z,78338.66
2022-11-27T19:24:35.668Z,78338.66
2022-11-27T19:27:03.865Z,78332.59
2022-11-27T19:29:31.143Z,78332.59
2022-11-27T19:32:01.053Z,78326.50
2022-11-27T19:34:29.314Z,78328.53
2022-11-27T19:36:58.442Z,78328.53
2022-11-27T19:39:27.352Z,78328.53
2022-11-27T19:41:55.067Z,78328.53
2022-11-27T19:44:23.565Z,78332.59
2022-11-27T19:46:51.132Z,78328.53
2022-11-27T19:49:18.781Z,78332.59
2022-11-27T19:51:46.909Z,78336.66
2022-11-27T19:54:15.958Z,78334.63
2022-11-27T19:56:43.991Z,78332.59
2022-11-27T19:59:12.717Z,78344.75
2022-11-27T20:01:42.373Z,78356.94
2022-11-27T20:04:11.603Z,78363.00
2022-11-27T20:06:39.915Z,78371.13
2022-11-27T20:09:08.919Z,78377.22
2022-11-27T20:11:36.585Z,78381.25
2022-11-27T20:14:06.334Z,78381.25
2022-11-27T20:16:35.236Z,78389.38
2022-11-27T20:19:05.635Z,78393.44
2022-11-27T20:21:35.780Z,78395.47
2022-11-27T20:24:03.814Z,78397.50
2022-11-27T20:26:31.334Z,78397.50
2022-11-27T20:28:59.986Z,78397.50
2022-11-27T20:31:32.934Z,78401.53
2022-11-27T20:34:02.814Z,78401.53
2022-11-27T20:36:33.774Z,78401.53
2022-11-27T20:39:01.732Z,78401.53
2022-11-27T20:41:30.319Z,78405.59
2022-11-27T20:44:00.909Z,78403.56
2022-11-27T20:46:29.601Z,78409.66
2022-11-27T20:48:57.758Z,78415.75
2022-11-27T20:51:30.279Z,78413.72
2022-11-27T20:53:59.585Z,78413.72
2022-11-27T20:56:27.400Z,78413.72
2022-11-27T20:58:54.893Z,78413.72
2022-11-27T21:01:26.568Z,78417.78
2022-11-27T21:03:55.139Z,78421.81
2022-11-27T21:06:29.648Z,78421.81
2022-11-27T21:09:00.007Z,78429.94
2022-11-27T21:11:29.688Z,78417.78
2022-11-27T21:14:00.848Z,78421.81
2022-11-27T21:16:31.661Z,78421.81
2022-11-27T21:19:02.787Z,78413.72
2022-11-27T21:21:30.628Z,78409.66
2022-11-27T21:23:58.634Z,78409.66
2022-11-27T21:26:26.674Z,78411.69
2022-11-27T21:28:53.634Z,78409.66
2022-11-27T21:31:24.260Z,78413.72
2022-11-27T21:33:53.979Z,78411.69
2022-11-27T21:36:22.840Z,78399.50
2022-11-27T21:38:50.035Z,78405.59
2022-11-27T21:41:18.153Z,78401.53
2022-11-27T21:43:46.299Z,78401.53
2022-11-27T21:46:19.081Z,78401.53
2022-11-27T21:48:47.858Z,78401.53
2022-11-27T21:51:15.708Z,78397.50
2022-11-27T21:53:44.203Z,78395.47
2022-11-27T21:56:14.953Z,78399.50
2022-11-27T21:58:43.233Z,78399.50
2022-11-27T22:01:17.007Z,78397.50
2022-11-27T22:03:47.083Z,78397.50
2022-11-27T22:06:16.189Z,78403.56
2022-11-27T22:08:45.671Z,78409.66
2022-11-27T22:11:16.111Z,78417.78
2022-11-27T22:13:43.651Z,78417.78
2022-11-27T22:16:17.944Z,78417.78
2022-11-27T22:18:46.032Z,78421.81
2022-11-27T22:21:14.950Z,78429.94
2022-11-27T22:23:43.362Z,78429.94
2022-11-27T22:26:16.218Z,78429.94
2022-11-27T22:28:43.919Z,78446.16
2022-11-27T22:31:12.546Z,78442.09
2022-11-27T22:33:41.488Z,78438.06
2022-11-27T22:36:20.453Z,78434.00
2022-11-27T22:38:50.515Z,78417.78
2022-11-27T22:41:19.501Z,78417.78
2022-11-27T22:43:46.921Z,78421.81
2022-11-27T22:46:28.342Z,78415.75
2022-11-27T22:48:58.324Z,78409.66
2022-11-27T22:51:28.055Z,78397.50
2022-11-27T22:53:55.398Z,78397.50
2022-11-27T22:56:23.430Z,78393.44
2022-11-27T22:58:58.241Z,78395.47
2022-11-27T23:01:34.686Z,78389.38
2022-11-27T23:04:02.314Z,78389.38
2022-11-27T23:06:30.312Z,78389.38
2022-11-27T23:08:57.221Z,78389.38
2022-11-27T23:11:26.640Z,78393.44
2022-11-27T23:13:55.601Z,78393.44
2022-11-27T23:16:23.400Z,78389.38
2022-11-27T23:18:51.204Z,78381.25
2022-11-27T23:21:21.818Z,78381.25
2022-11-27T23:23:49.425Z,78375.19
2022-11-27T23:26:21.896Z,78375.19
2022-11-27T23:28:52.657Z,78381.25
2022-11-27T23:31:30.912Z,78373.16
2022-11-27T23:34:01.941Z,78387.34
2022-11-27T23:36:31.703Z,78391.41
2022-11-27T23:39:04.436Z,78399.50
2022-11-27T23:41:32.917Z,78397.50
2022-11-27T23:44:01.573Z,78399.50
2022-11-27T23:46:30.368Z,78413.72
2022-11-27T23:48:59.915Z,78417.78
2022-11-27T23:51:30.359Z,78413.72
2022-11-27T23:53:57.427Z,78409.66
2022-11-27T23:56:27.461Z,78407.63
2022-11-27T23:58:55.777Z,78401.53
